createdAt,value
2022-07-28T10:44:20.036Z,58.00
2022-07-28T10:46:47.690Z,60.70
2022-07-28T10:49:15.216Z,62.30
2022-07-28T10:54:36.546Z,63.00
2022-07-28T10:57:06.411Z,63.80
2022-07-28T10:59:36.980Z,63.60
2022-07-28T11:04:51.940Z,65.00
2022-07-28T11:07:20.940Z,66.70
2022-07-28T11:09:48.670Z,69.00
2022-07-28T11:12:16.707Z,70.80
2022-07-28T11:14:44.063Z,72.20
2022-07-28T11:17:11.503Z,73.30
2022-07-28T11:22:34.588Z,76.80
2022-07-28T11:25:18.868Z,79.90
2022-07-28T11:27:52.630Z,82.60
2022-07-28T11:30:22.729Z,84.30
2022-07-28T11:32:55.802Z,87.20
2022-07-28T11:35:25.228Z,89.70
2022-07-28T11:38:02.888Z,90.50
2022-07-28T11:40:44.545Z,91.30
2022-07-28T11:43:35.314Z,92.80
2022-07-28T11:46:11.374Z,93.20
2022-07-28T11:48:41.890Z,93.30
2022-07-28T11:51:10.662Z,93.70
2022-07-28T11:53:47.041Z,94.70
2022-07-28T11:56:17.062Z,95.10
2022-07-28T11:58:44.218Z,95.70
2022-07-28T12:01:20.110Z,96.60
2022-07-28T12:03:54.952Z,98.10
2022-07-28T12:06:28.846Z,99.90
2022-07-28T12:09:05.236Z,99.90
2022-07-28T12:14:05.657Z,99.90
2022-07-28T12:16:45.095Z,99.90
2022-07-28T12:19:15.837Z,99.90
2022-07-28T12:21:51.591Z,99.90
2022-07-28T12:24:30.003Z,99.90
2022-07-28T12:26:58.563Z,99.90
2022-07-28T12:29:32.213Z,99.90
2022-07-28T12:32:11.090Z,99.90
2022-07-28T12:34:40.688Z,99.90
2022-07-28T12:37:12.679Z,99.90
2022-07-28T12:39:43.435Z,99.90
2022-07-28T12:42:13.128Z,99.90
2022-07-28T12:44:47.606Z,99.90
2022-07-28T12:47:16.260Z,99.90
2022-07-28T12:49:44.608Z,99.90
2022-07-28T12:52:23.163Z,99.90
2022-07-28T12:54:55.785Z,99.90
2022-07-28T12:57:49.236Z,99.90
2022-07-28T13:00:20.521Z,99.90
2022-07-28T13:02:49.965Z,99.90
2022-07-28T14:15:13.752Z,99.90
2022-07-28T14:17:43.593Z,99.90
2022-07-28T14:20:16.351Z,99.90
2022-07-28T14:22:44.579Z,99.90
2022-07-28T14:25:21.171Z,99.90
2022-07-28T14:27:50.031Z,99.90
2022-07-28T14:30:18.704Z,99.90
2022-07-28T14:32:45.832Z,99.90
2022-07-28T14:35:13.125Z,99.90
2022-07-28T14:38:15.785Z,99.90
2022-07-28T14:40:27.704Z,99.90
2022-07-28T14:42:55.124Z,99.90
2022-07-28T14:45:22.452Z,99.90
2022-07-28T14:47:49.604Z,99.90
2022-07-28T14:50:16.777Z,99.90
2022-07-28T14:52:44.757Z,99.90
2022-07-28T14:55:12.887Z,99.90
2022-07-28T14:57:52.208Z,99.90
2022-07-28T15:00:23.313Z,99.90
2022-07-28T15:02:53.128Z,99.90
2022-07-28T15:05:21.410Z,99.90
2022-07-28T15:07:49.553Z,99.90
2022-07-28T15:10:16.807Z,99.90
2022-07-28T15:12:44.136Z,99.90
2022-07-28T15:15:12.941Z,99.80
2022-07-28T15:17:40.388Z,99.80
2022-07-28T15:20:08.755Z,99.90
2022-07-28T15:22:35.827Z,99.90
2022-07-28T15:25:04.227Z,99.90
2022-07-28T15:27:33.805Z,99.90
2022-07-28T15:30:02.917Z,99.90
2022-07-28T15:32:31.838Z,99.90
2022-07-28T15:34:59.553Z,99.90
2022-07-28T15:37:28.169Z,99.90
2022-07-28T15:39:55.449Z,99.90
2022-07-28T15:42:22.878Z,99.90
2022-07-28T15:44:50.389Z,99.90
2022-07-28T15:47:17.489Z,99.90
2022-07-28T15:49:44.818Z,99.90
2022-07-28T15:52:12.425Z,99.90
2022-07-28T15:54:39.609Z,99.90
2022-07-28T15:57:06.773Z,99.90
2022-07-28T15:59:49.322Z,99.90
2022-07-28T16:02:18.748Z,99.90
2022-07-28T16:04:53.730Z,99.90
2022-07-28T16:07:24.855Z,99.90
2022-07-28T16:09:54.909Z,99.90
2022-07-28T16:12:25.446Z,99.90
2022-07-28T16:14:54.128Z,99.90
2022-07-28T16:17:21.767Z,99.90
2022-07-28T16:19:50.527Z,99.90
2022-07-28T16:22:21.494Z,99.90
2022-07-28T16:24:49.408Z,99.90
2022-07-28T16:27:16.716Z,99.90
2022-07-28T16:29:44.953Z,99.90
2022-07-28T16:32:12.072Z,99.90
2022-07-28T16:34:39.593Z,99.90
2022-07-28T16:37:06.885Z,99.90
2022-07-28T16:39:34.886Z,99.90
2022-07-28T16:42:03.042Z,99.90
2022-07-28T16:44:30.814Z,99.90
2022-07-28T16:46:58.317Z,99.90
2022-07-28T16:49:25.882Z,99.90
2022-07-28T16:51:54.687Z,99.90
2022-07-28T16:54:22.266Z,99.90
2022-07-28T16:56:50.373Z,99.90
2022-07-28T16:59:17.555Z,99.90
2022-07-28T17:01:46.509Z,99.90
2022-07-28T17:04:17.199Z,99.90
2022-07-28T17:06:45.491Z,99.90
2022-07-28T17:09:15.900Z,99.90
2022-07-28T17:11:44.756Z,99.90
2022-07-28T17:14:12.792Z,99.90
2022-07-28T17:16:40.232Z,99.90
2022-07-28T17:19:07.417Z,99.90
2022-07-28T17:21:36.052Z,99.90
2022-07-28T17:24:03.363Z,99.90
2022-07-28T17:29:19.280Z,99.90
2022-07-28T17:31:46.593Z,99.90
2022-07-28T17:34:14.617Z,99.90
2022-07-28T17:36:42.081Z,99.90
2022-07-28T17:39:09.503Z,99.90
2022-07-28T17:41:36.599Z,99.90
2022-07-28T17:44:04.267Z,99.90
2022-07-28T17:46:32.078Z,99.80
2022-07-28T17:49:00.721Z,99.40
2022-07-28T17:51:28.808Z,98.70
2022-07-28T17:53:55.958Z,98.60
2022-07-28T17:56:23.378Z,98.20
2022-07-28T18:01:19.093Z,97.20
2022-07-28T18:03:58.061Z,97.10
2022-07-28T18:06:33.606Z,96.80
2022-07-28T18:09:07.504Z,96.40
2022-07-28T18:11:55.276Z,96.20
2022-07-28T18:14:24.806Z,96.10
2022-07-28T18:16:51.875Z,96.10
2022-07-28T18:19:19.003Z,95.90
2022-07-28T18:21:46.181Z,96.00
2022-07-28T18:24:13.766Z,96.10
2022-07-28T18:26:41.135Z,96.10
2022-07-28T18:29:08.299Z,96.20
2022-07-28T18:34:03.691Z,96.20
2022-07-28T18:36:31.935Z,96.60
2022-07-28T18:38:59.118Z,96.50
2022-07-28T18:41:26.233Z,96.60
2022-07-28T18:43:53.489Z,96.60
2022-07-28T18:46:21.116Z,96.70
2022-07-28T18:48:57.017Z,96.70
2022-07-28T18:51:25.664Z,96.80
2022-07-28T18:53:52.902Z,96.90
2022-07-28T18:56:20.086Z,97.00
2022-07-28T18:58:47.157Z,96.80
2022-07-28T19:01:14.683Z,96.70
2022-07-28T19:03:42.041Z,96.50
2022-07-28T19:06:10.428Z,96.40
2022-07-28T19:08:37.610Z,96.20
2022-07-28T19:11:04.733Z,96.30
2022-07-28T19:13:33.369Z,96.20
2022-07-28T19:16:00.504Z,96.20
2022-07-28T19:18:27.729Z,96.40
2022-07-28T19:23:24.039Z,96.50
2022-07-28T19:25:51.597Z,97.00
2022-07-28T19:28:19.084Z,97.40
2022-07-28T19:30:49.786Z,97.60
2022-07-28T19:33:19.293Z,97.70
2022-07-28T19:35:46.968Z,97.90
2022-07-28T19:38:14.064Z,97.90
2022-07-28T19:40:43.054Z,97.90
2022-07-28T19:43:10.861Z,97.90
2022-07-28T19:45:39.100Z,98.10
2022-07-28T19:48:07.526Z,98.10
2022-07-28T19:50:36.347Z,98.00
2022-07-28T19:53:04.185Z,98.00
